Storm Events Database

Event Details

Event Thunderstorm Wind
Magnitude 70 kts.
State MONTANA
County/Area DAWSON
WFO GGW
Report Source Trained Spotter
NCDC Data Source CSV
Begin Date 2008-07-26 21:10:00.0 MST-7
Begin Location 14SSW LINDSAY
Begin Lat/Lon 47.03/-105.26
End Date 2008-07-26 21:10:00.0 MST-7
Deaths Direct/Indirect 0/0 (fatality details below, when available...)
Injuries Direct/Indirect 0/0
Property Damage 0.00K
Crop Damage 0.00K
Episode Narrative A mid level impulse generated numerous severe thunderstorms across northeast Montana. A few of these storms produced hail as large as two inches in diameter with winds up to 80 mph. Significant crop losses occurred with this event, but damage estimates and areal extent of the losses are not known.
Event Narrative Winds were sustained between 50 and 60 mph along with 0.75 hail.


     ‚Äč



All events for this episode:

Location County/Zone St. Date Time T.Z. Type Mag Dth Inj PrD CrD
Totals: 0 0 56.50K 0.00K
WINNETT PETROLEUM CO. MT 07/26/2008 15:15 MST-7 Hail 0.75 in. 0 0 0.00K 0.00K
ZORTMAN PHILLIPS CO. MT 07/26/2008 15:52 MST-7 Hail 1.00 in. 0 0 0.00K 0.00K
DODSON PHILLIPS CO. MT 07/26/2008 16:05 MST-7 Hail 1.00 in. 0 0 0.00K 0.00K
ZORTMAN PHILLIPS CO. MT 07/26/2008 16:25 MST-7 Hail 1.00 in. 0 0 0.00K 0.00K
ZORTMAN PHILLIPS CO. MT 07/26/2008 17:00 MST-7 Hail 1.00 in. 0 0 0.00K 0.00K
GLASGOW VALLEY CO. MT 07/26/2008 17:30 MST-7 Thunderstorm Wind 52 kts. EG 0 0 0.00K 0.00K
MALTA PHILLIPS CO. MT 07/26/2008 17:30 MST-7 Hail 1.00 in. 0 0 0.00K 0.00K
MALTA PHILLIPS CO. MT 07/26/2008 17:35 MST-7 Hail 0.75 in. 0 0 0.00K 0.00K
LUSTRE VALLEY CO. MT 07/26/2008 18:15 MST-7 Hail 1.75 in. 0 0 0.50K 0.00K
FRAZER VALLEY CO. MT 07/26/2008 18:40 MST-7 Hail 2.00 in. 0 0 0.00K 0.00K
(OLF)WOLF PT INT ARP ROOSEVELT CO. MT 07/26/2008 19:16 MST-7 Hail 1.00 in. 0 0 0.00K 0.00K
CIRCLE MCCONE CO. MT 07/26/2008 19:42 MST-7 Hail 0.88 in. 0 0 0.00K 0.00K
CIRCLE MCCONE CO. MT 07/26/2008 19:42 MST-7 Thunderstorm Wind 70 kts. EG 0 0 45.00K 0.00K
BROCKWAY MCCONE CO. MT 07/26/2008 20:00 MST-7 Hail 0.88 in. 0 0 0.00K 0.00K
BROCKWAY MCCONE CO. MT 07/26/2008 20:05 MST-7 Hail 2.00 in. 0 0 0.00K 0.00K
CIRCLE MCCONE CO. MT 07/26/2008 20:06 MST-7 Hail 0.88 in. 0 0 0.00K 0.00K
CIRCLE MCCONE CO. MT 07/26/2008 20:06 MST-7 Hail 1.00 in. 0 0 0.00K 0.00K
TERRY PRAIRIE CO. MT 07/26/2008 20:08 MST-7 Hail 1.75 in. 0 0 0.00K 0.00K
SIDNEY RICHLAND CO. MT 07/26/2008 20:20 MST-7 Hail 1.00 in. 0 0 0.00K 0.00K
TERRY PRAIRIE CO. MT 07/26/2008 20:23 MST-7 Hail 1.00 in. 0 0 1.00K 0.00K
TERRY PRAIRIE CO. MT 07/26/2008 20:36 MST-7 Hail 1.25 in. 0 0 0.00K 0.00K
SAVAGE RICHLAND CO. MT 07/26/2008 20:45 MST-7 Hail 1.00 in. 0 0 0.00K 0.00K
SAVAGE RICHLAND CO. MT 07/26/2008 20:55 MST-7 Hail 1.00 in. 0 0 0.00K 0.00K
LINDSAY DAWSON CO. MT 07/26/2008 21:10 MST-7 Hail 0.75 in. 0 0 0.00K 0.00K
LINDSAY DAWSON CO. MT 07/26/2008 21:10 MST-7 Thunderstorm Wind 70 kts. EG 0 0 0.00K 0.00K
GLENDIVE DAWSON CO. MT 07/26/2008 21:25 MST-7 Thunderstorm Wind 52 kts. EG 0 0 0.00K 0.00K
MILDRED PRAIRIE CO. MT 07/26/2008 21:30 MST-7 Hail 1.00 in. 0 0 0.00K 0.00K
MILDRED PRAIRIE CO. MT 07/26/2008 21:42 MST-7 Hail 1.00 in. 0 0 0.00K 0.00K
MILDRED PRAIRIE CO. MT 07/26/2008 21:45 MST-7 Thunderstorm Wind 70 kts. EG 0 0 10.00K 0.00K
WIBAUX WIBAUX CO. MT 07/26/2008 22:30 MST-7 Thunderstorm Wind 52 kts. EG 0 0 0.00K 0.00K
BRUSETT GARFIELD CO. MT 07/27/2008 00:45 MST-7 Hail 0.75 in. 0 0 0.00K 0.00K
Totals: 0 0 56.50K 0.00K